createdAt,value
2023-03-23T00:00:28.845Z,12.9
2023-03-23T00:01:45.125Z,12.9
2023-03-23T00:03:01.415Z,12.9
2023-03-23T00:04:17.706Z,12.9
2023-03-23T00:05:34.013Z,12.9
2023-03-23T00:06:50.297Z,12.9
2023-03-23T00:08:06.590Z,12.9
2023-03-23T00:09:22.891Z,12.9
2023-03-23T00:10:39.182Z,12.9
2023-03-23T00:11:55.479Z,12.9
2023-03-23T00:13:11.774Z,12.9
2023-03-23T00:14:28.060Z,12.9
2023-03-23T00:15:44.367Z,12.9
2023-03-23T00:16:59.683Z,12.9
2023-03-23T00:18:15.958Z,12.9
2023-03-23T00:19:32.263Z,12.9
2023-03-23T00:20:48.549Z,12.9
2023-03-23T00:22:04.854Z,12.9
2023-03-23T00:23:21.142Z,12.9
2023-03-23T00:24:37.447Z,12.9
2023-03-23T00:25:53.732Z,12.9
2023-03-23T00:27:10.033Z,12.9
2023-03-23T00:28:26.317Z,12.9
2023-03-23T00:29:42.605Z,12.9
2023-03-23T00:30:58.914Z,12.9
2023-03-23T00:32:15.201Z,12.9
2023-03-23T00:33:30.501Z,12.9
2023-03-23T00:34:46.806Z,12.9
2023-03-23T00:36:03.107Z,12.9
2023-03-23T00:37:19.390Z,12.9
2023-03-23T00:38:35.688Z,12.9
2023-03-23T00:39:51.970Z,12.9
2023-03-23T00:41:08.273Z,12.9
2023-03-23T00:42:24.566Z,12.8
2023-03-23T00:43:40.860Z,12.9
2023-03-23T00:44:57.152Z,12.9
2023-03-23T00:46:13.452Z,12.9
2023-03-23T00:47:29.741Z,12.9
2023-03-23T00:48:46.030Z,12.9
2023-03-23T00:50:01.339Z,12.9
2023-03-23T00:51:17.639Z,12.9
2023-03-23T00:52:33.928Z,12.9
2023-03-23T00:53:50.241Z,12.9
2023-03-23T00:55:06.521Z,12.9
2023-03-23T00:56:22.825Z,12.9
2023-03-23T00:57:39.111Z,12.9
2023-03-23T00:58:55.408Z,12.9
2023-03-23T01:00:11.699Z,12.9
2023-03-23T01:01:27.997Z,12.9
2023-03-23T01:02:44.284Z,12.9
2023-03-23T01:04:00.580Z,12.9
2023-03-23T01:05:16.884Z,12.9
2023-03-23T01:06:32.183Z,12.8
2023-03-23T01:07:48.483Z,12.9
2023-03-23T01:09:04.785Z,12.9
2023-03-23T01:10:21.068Z,12.9
2023-03-23T01:11:37.372Z,12.9
2023-03-23T01:12:53.660Z,12.9
2023-03-23T01:14:09.943Z,12.9
2023-03-23T01:15:26.257Z,12.9
2023-03-23T01:16:42.530Z,12.9
2023-03-23T01:17:58.839Z,12.9
2023-03-23T01:20:31.425Z,12.9
2023-03-23T01:21:47.707Z,12.9
2023-03-23T01:23:03.016Z,12.9
2023-03-23T01:24:19.310Z,12.9
2023-03-23T01:25:35.616Z,12.9
2023-03-23T01:26:51.906Z,12.9
2023-03-23T01:28:08.208Z,12.9
2023-03-23T01:29:24.501Z,12.9
2023-03-23T01:30:40.798Z,12.9
2023-03-23T01:31:57.092Z,12.8
2023-03-23T01:33:13.371Z,12.8
2023-03-23T01:35:45.974Z,12.9
2023-03-23T01:37:02.267Z,12.9
2023-03-23T01:38:18.550Z,12.8
2023-03-23T01:39:33.872Z,12.8
2023-03-23T01:40:50.161Z,12.8
2023-03-23T01:42:06.452Z,12.8
2023-03-23T01:43:22.747Z,12.8
2023-03-23T01:44:39.043Z,12.7
2023-03-23T01:45:55.332Z,12.7
2023-03-23T01:47:11.625Z,12.7
2023-03-23T01:48:27.917Z,12.7
2023-03-23T01:49:44.218Z,12.7
2023-03-23T01:51:00.499Z,12.7
2023-03-23T01:52:16.814Z,12.6
2023-03-23T01:53:33.103Z,12.6
2023-03-23T01:54:49.386Z,12.7
2023-03-23T01:56:04.709Z,12.6
2023-03-23T01:57:20.996Z,12.6
2023-03-23T01:58:37.280Z,12.6
2023-03-23T01:59:53.580Z,12.6
2023-03-23T02:01:09.870Z,12.5
2023-03-23T02:02:26.177Z,12.6
2023-03-23T02:03:42.466Z,12.6
2023-03-23T02:04:58.758Z,12.6
2023-03-23T02:06:15.049Z,12.6
2023-03-23T02:07:31.350Z,12.6
2023-03-23T02:08:47.632Z,12.6
2023-03-23T02:10:03.940Z,12.6
2023-03-23T02:11:20.237Z,12.5
2023-03-23T02:12:35.540Z,12.5
2023-03-23T02:15:08.124Z,12.5
2023-03-23T02:16:24.427Z,12.6
2023-03-23T02:17:40.712Z,12.6
2023-03-23T02:18:57.014Z,12.6
2023-03-23T02:20:13.296Z,12.6
2023-03-23T02:21:29.598Z,12.6
2023-03-23T02:22:45.892Z,12.6
2023-03-23T02:24:02.180Z,12.6
2023-03-23T02:25:18.486Z,12.6
2023-03-23T02:26:34.779Z,12.6
2023-03-23T02:27:51.058Z,12.6
2023-03-23T02:29:06.369Z,12.6
2023-03-23T02:30:22.678Z,12.6
2023-03-23T02:31:38.957Z,12.6
2023-03-23T02:32:55.269Z,12.6
2023-03-23T02:34:11.555Z,12.6
2023-03-23T02:35:27.845Z,12.6
2023-03-23T02:36:44.138Z,12.6
2023-03-23T02:38:00.440Z,12.6
2023-03-23T02:39:16.727Z,12.7
2023-03-23T02:40:33.020Z,12.7
2023-03-23T02:41:49.318Z,12.7
2023-03-23T02:43:05.615Z,12.7
2023-03-23T02:44:21.910Z,12.6
2023-03-23T02:45:37.211Z,12.7
2023-03-23T02:46:53.502Z,12.7
2023-03-23T02:48:09.812Z,12.7
2023-03-23T02:49:26.105Z,12.7
2023-03-23T02:50:42.399Z,12.7
2023-03-23T02:51:58.682Z,12.7
2023-03-23T02:53:14.976Z,12.6
2023-03-23T02:54:31.272Z,12.7
2023-03-23T02:55:47.571Z,12.7
2023-03-23T02:57:03.859Z,12.7
2023-03-23T02:58:20.158Z,12.6
2023-03-23T02:59:36.460Z,12.7
2023-03-23T03:00:52.754Z,12.7
2023-03-23T03:02:08.055Z,12.7
2023-03-23T03:03:24.351Z,12.6
2023-03-23T03:04:40.645Z,12.7
2023-03-23T03:05:56.929Z,12.6
2023-03-23T03:07:12.257Z,12.7
2023-03-23T03:09:44.844Z,12.6
2023-03-23T03:11:01.128Z,12.6
2023-03-23T03:12:17.417Z,12.6
2023-03-23T03:13:33.726Z,12.5
2023-03-23T03:14:50.016Z,12.6
2023-03-23T03:16:06.303Z,12.6
2023-03-23T03:17:22.606Z,12.5
2023-03-23T03:18:38.895Z,12.6
2023-03-23T03:19:55.201Z,12.5
2023-03-23T03:21:11.489Z,12.5
2023-03-23T03:22:27.770Z,12.5
2023-03-23T03:23:43.096Z,12.6
2023-03-23T03:24:59.376Z,12.5
2023-03-23T03:26:15.688Z,12.5
2023-03-23T03:27:31.975Z,12.5
2023-03-23T03:28:48.271Z,12.5
2023-03-23T03:30:04.561Z,12.5
2023-03-23T03:31:20.851Z,12.5
2023-03-23T03:32:37.147Z,12.5
2023-03-23T03:33:53.436Z,12.5
2023-03-23T03:35:09.740Z,12.5
2023-03-23T03:36:26.039Z,12.5
2023-03-23T03:37:42.330Z,12.5
2023-03-23T03:38:58.615Z,12.5
2023-03-23T03:40:13.921Z,12.5
2023-03-23T03:41:30.213Z,12.5
2023-03-23T03:42:46.518Z,12.5
2023-03-23T03:44:02.815Z,12.5
2023-03-23T03:45:19.113Z,12.5
2023-03-23T03:46:35.403Z,12.5
2023-03-23T03:47:51.697Z,12.5
2023-03-23T03:49:07.987Z,12.5
2023-03-23T03:50:24.275Z,12.5
2023-03-23T03:51:40.581Z,12.6
2023-03-23T03:52:56.863Z,12.6
2023-03-23T03:54:13.168Z,12.6
2023-03-23T03:55:29.456Z,12.6
2023-03-23T03:56:45.754Z,12.6
2023-03-23T03:58:01.059Z,12.6
2023-03-23T03:59:17.348Z,12.6
2023-03-23T04:00:33.656Z,12.7
2023-03-23T04:01:49.938Z,12.7
2023-03-23T04:03:06.233Z,12.7
2023-03-23T04:04:22.528Z,12.7
2023-03-23T04:05:38.828Z,12.7
2023-03-23T04:06:55.125Z,12.7
2023-03-23T04:08:11.420Z,12.7
2023-03-23T04:09:27.706Z,12.7
2023-03-23T04:10:43.988Z,12.7
2023-03-23T04:12:00.303Z,12.7
2023-03-23T04:13:16.593Z,12.7
2023-03-23T04:14:31.901Z,12.8
2023-03-23T04:15:48.189Z,12.8
2023-03-23T04:17:04.491Z,12.8
2023-03-23T04:18:20.779Z,12.8
2023-03-23T04:19:37.071Z,12.8
2023-03-23T04:22:09.659Z,12.8
2023-03-23T04:23:25.963Z,12.8
2023-03-23T04:24:42.261Z,12.8
2023-03-23T04:25:58.538Z,12.8
2023-03-23T04:27:14.841Z,12.8
2023-03-23T04:28:31.129Z,12.9
2023-03-23T04:29:47.434Z,12.9
2023-03-23T04:31:02.724Z,12.9
2023-03-23T04:33:35.330Z,12.9
2023-03-23T04:34:51.610Z,12.9
2023-03-23T04:36:07.918Z,12.9
2023-03-23T04:37:24.202Z,12.9
2023-03-23T04:38:40.497Z,12.9
2023-03-23T04:39:56.795Z,12.9
2023-03-23T04:41:13.041Z,12.9
2023-03-23T04:42:29.279Z,12.9
2023-03-23T04:43:45.523Z,12.9
2023-03-23T04:45:01.771Z,12.9
2023-03-23T04:46:18.011Z,12.9
2023-03-23T04:47:33.254Z,12.9
2023-03-23T04:48:49.507Z,12.9
2023-03-23T04:50:05.742Z,13
2023-03-23T04:51:21.984Z,12.9
2023-03-23T04:52:38.211Z,13
2023-03-23T04:53:54.470Z,13
2023-03-23T04:55:10.696Z,13
2023-03-23T04:56:26.947Z,13
2023-03-23T04:57:43.178Z,13
2023-03-23T04:58:59.418Z,13
2023-03-23T05:00:15.660Z,13
2023-03-23T05:01:31.906Z,13
2023-03-23T05:04:04.370Z,13
2023-03-23T05:05:19.639Z,13
2023-03-23T05:06:35.870Z,13
2023-03-23T05:07:52.125Z,13
2023-03-23T05:09:08.350Z,13
2023-03-23T05:10:24.596Z,13
2023-03-23T05:11:40.846Z,13
2023-03-23T05:12:57.085Z,13
2023-03-23T05:14:13.307Z,13
2023-03-23T05:15:29.548Z,13
2023-03-23T05:16:45.803Z,13
2023-03-23T05:19:18.281Z,13
2023-03-23T05:20:34.511Z,13
2023-03-23T05:21:49.762Z,13
2023-03-23T05:23:06.017Z,13
2023-03-23T05:24:22.255Z,13
2023-03-23T05:25:38.486Z,13
2023-03-23T05:26:54.740Z,13
2023-03-23T05:28:10.973Z,13
2023-03-23T05:29:27.222Z,13.1
2023-03-23T05:30:43.448Z,13.1
2023-03-23T05:31:59.698Z,13
2023-03-23T05:33:15.940Z,13
2023-03-23T05:34:32.168Z,13.1
2023-03-23T05:35:48.419Z,13.1
2023-03-23T05:37:04.654Z,13.1
2023-03-23T05:38:19.899Z,13.1
2023-03-23T05:39:36.000Z,13.1
2023-03-23T05:40:52.397Z,13.1
2023-03-23T05:42:08.626Z,13.1
2023-03-23T05:44:41.099Z,13.1
2023-03-23T05:45:57.347Z,13.1
2023-03-23T05:47:13.598Z,13.2
2023-03-23T05:48:29.820Z,13.1
2023-03-23T05:49:46.074Z,13.2
2023-03-23T05:51:02.304Z,13.2
2023-03-23T05:52:18.555Z,13.2
2023-03-23T05:53:34.797Z,13.2
2023-03-23T05:54:50.041Z,13.2
2023-03-23T05:56:06.280Z,13.2
2023-03-23T05:57:22.523Z,13.2
2023-03-23T05:58:38.765Z,13.2
2023-03-23T05:59:55.013Z,13.2
2023-03-23T06:01:11.252Z,13.2
2023-03-23T06:02:27.479Z,13.2
2023-03-23T06:03:43.725Z,13.1
2023-03-23T06:04:59.970Z,13.2
2023-03-23T06:06:16.197Z,13.2
2023-03-23T06:07:32.448Z,13.2
2023-03-23T06:08:48.692Z,13.1
2023-03-23T06:10:04.927Z,13.1
2023-03-23T06:12:36.431Z,13.1
2023-03-23T06:13:52.652Z,13.1
2023-03-23T06:15:08.899Z,13.1
2023-03-23T06:16:25.143Z,13.1
2023-03-23T06:17:41.387Z,13
2023-03-23T06:18:57.616Z,13
2023-03-23T06:20:13.872Z,13
2023-03-23T06:21:30.090Z,13
2023-03-23T06:22:46.337Z,13
2023-03-23T06:24:02.586Z,13
2023-03-23T06:25:18.822Z,13
2023-03-23T06:27:51.311Z,13
2023-03-23T06:29:06.560Z,13
2023-03-23T06:30:22.799Z,13
2023-03-23T06:31:39.036Z,13
2023-03-23T06:32:55.280Z,13
2023-03-23T06:35:27.750Z,13
2023-03-23T06:36:43.022Z,13
2023-03-23T06:37:58.277Z,13
2023-03-23T06:39:14.521Z,13
2023-03-23T06:40:30.747Z,13
2023-03-23T06:41:46.991Z,13
2023-03-23T06:43:03.230Z,13
2023-03-23T06:44:19.467Z,13
2023-03-23T06:45:35.720Z,13
2023-03-23T06:46:51.957Z,12.9
2023-03-23T06:48:08.191Z,13
2023-03-23T06:49:24.427Z,12.9
2023-03-23T06:50:39.690Z,12.9
2023-03-23T06:51:54.945Z,12.9
2023-03-23T06:53:11.200Z,12.9
2023-03-23T06:54:27.442Z,12.9
2023-03-23T06:55:43.667Z,12.9
2023-03-23T06:56:59.908Z,12.9
2023-03-23T06:58:16.148Z,12.9
2023-03-23T06:59:32.399Z,12.9
2023-03-23T07:00:48.626Z,12.9
2023-03-23T07:02:04.866Z,12.9
2023-03-23T07:03:21.109Z,12.9
2023-03-23T07:04:37.361Z,12.9
2023-03-23T07:05:53.596Z,12.9
2023-03-23T07:07:09.834Z,12.9
2023-03-23T07:08:25.081Z,12.9
2023-03-23T07:09:41.320Z,12.9
2023-03-23T07:10:57.563Z,12.9
2023-03-23T07:13:30.055Z,12.9
2023-03-23T07:14:46.281Z,13
2023-03-23T07:16:02.536Z,13
2023-03-23T07:17:18.764Z,13
2023-03-23T07:18:35.005Z,13
2023-03-23T07:19:51.257Z,13
2023-03-23T07:21:07.487Z,13
2023-03-23T07:22:23.727Z,13
2023-03-23T07:23:38.980Z,13
2023-03-23T07:24:55.219Z,13
2023-03-23T07:26:11.460Z,13
2023-03-23T07:27:27.707Z,13.1
2023-03-23T07:28:43.955Z,13.1
2023-03-23T07:31:16.423Z,13.1
2023-03-23T07:32:32.678Z,13.1
2023-03-23T07:33:48.900Z,13.1
2023-03-23T07:35:05.151Z,13.1
2023-03-23T07:36:21.397Z,13.1
2023-03-23T07:37:37.619Z,13.1
2023-03-23T07:38:53.870Z,13.1
2023-03-23T07:40:09.127Z,13.1
2023-03-23T07:41:25.374Z,13.1
2023-03-23T07:42:41.612Z,13.1
2023-03-23T07:43:57.848Z,13.2
2023-03-23T07:45:14.085Z,13.1
2023-03-23T07:46:30.323Z,13.2
2023-03-23T07:47:46.572Z,13.2
2023-03-23T07:49:02.797Z,13.2
2023-03-23T07:50:19.046Z,13.3
2023-03-23T07:51:35.288Z,13.3
2023-03-23T07:52:51.525Z,13.3
2023-03-23T07:54:07.773Z,13.3
2023-03-23T07:55:24.002Z,13.3
2023-03-23T07:56:39.269Z,13.3
2023-03-23T07:59:11.730Z,13.4
2023-03-23T08:00:27.983Z,13.4
2023-03-23T08:01:44.211Z,13.4
2023-03-23T08:03:00.468Z,13.4
2023-03-23T08:04:16.692Z,13.3
2023-03-23T08:05:32.933Z,13.4
2023-03-23T08:06:49.177Z,13.3
2023-03-23T08:08:05.411Z,13.3
2023-03-23T08:09:21.654Z,13.3
2023-03-23T08:10:37.901Z,13.4
2023-03-23T08:11:54.137Z,13.4
2023-03-23T08:13:10.380Z,13.4
2023-03-23T08:14:25.640Z,13.5
2023-03-23T08:15:41.866Z,13.5
2023-03-23T08:16:58.108Z,13.6
2023-03-23T08:18:14.358Z,13.6
2023-03-23T08:19:30.596Z,13.6
2023-03-23T08:20:46.841Z,13.6
2023-03-23T08:22:03.069Z,13.7
2023-03-23T08:23:19.314Z,13.7
2023-03-23T08:24:35.555Z,13.7
2023-03-23T08:25:51.800Z,13.8
2023-03-23T08:27:08.047Z,13.8
2023-03-23T08:28:24.271Z,13.8
2023-03-23T08:29:40.520Z,13.8
2023-03-23T08:30:55.771Z,13.9
2023-03-23T08:32:12.008Z,13.9
2023-03-23T08:33:28.260Z,13.9
2023-03-23T08:34:44.491Z,13.9
2023-03-23T08:36:00.721Z,13.9
2023-03-23T08:37:16.965Z,13.9
2023-03-23T08:38:33.208Z,13.9
2023-03-23T08:39:49.442Z,13.9
2023-03-23T08:41:05.693Z,13.9
2023-03-23T08:42:21.935Z,13.9
2023-03-23T08:43:38.171Z,13.9
2023-03-23T08:44:54.412Z,13.9
2023-03-23T08:46:10.654Z,13.9
2023-03-23T08:47:25.907Z,13.9
2023-03-23T08:48:42.142Z,14
2023-03-23T08:49:58.388Z,13.9
2023-03-23T08:52:30.856Z,14
2023-03-23T08:53:47.107Z,14
2023-03-23T08:55:03.345Z,14
2023-03-23T08:56:19.583Z,14
2023-03-23T08:57:35.836Z,14.1
2023-03-23T09:00:08.302Z,14.2
2023-03-23T09:01:24.541Z,14.4
2023-03-23T09:02:40.790Z,14.5
2023-03-23T09:03:56.046Z,14.5
2023-03-23T09:05:12.273Z,14.6
2023-03-23T09:06:28.518Z,14.7
2023-03-23T09:07:44.750Z,14.7
2023-03-23T09:09:01.003Z,14.8
2023-03-23T09:10:17.241Z,14.8
2023-03-23T09:11:33.481Z,14.9
2023-03-23T09:12:49.720Z,14.9
2023-03-23T09:14:05.969Z,14.9
2023-03-23T09:15:22.200Z,14.9
2023-03-23T09:16:38.438Z,14.8
2023-03-23T09:17:54.683Z,14.9
2023-03-23T09:19:10.915Z,14.9
2023-03-23T09:20:26.175Z,14.9
2023-03-23T09:24:14.906Z,15.1
2023-03-23T09:25:30.166Z,15.2
2023-03-23T09:26:45.419Z,15.2
2023-03-23T09:28:01.646Z,15.3
2023-03-23T09:29:17.888Z,15.3
2023-03-23T09:30:34.134Z,15.4
2023-03-23T09:31:50.375Z,15.4
2023-03-23T09:33:06.614Z,15.5
2023-03-23T09:34:22.843Z,15.5
2023-03-23T09:35:39.087Z,15.5
2023-03-23T09:36:55.341Z,15.6
2023-03-23T09:38:11.574Z,15.6
2023-03-23T09:39:26.832Z,15.7
2023-03-23T09:40:42.094Z,15.7
2023-03-23T09:41:58.327Z,15.7
2023-03-23T09:43:14.562Z,15.7
2023-03-23T09:44:30.816Z,15.8
2023-03-23T09:45:47.054Z,15.8
2023-03-23T09:47:03.299Z,15.8
2023-03-23T09:48:19.531Z,15.8
2023-03-23T09:49:35.771Z,15.9
2023-03-23T09:50:52.009Z,15.9
2023-03-23T09:52:08.251Z,15.8
2023-03-23T09:53:24.499Z,15.9
2023-03-23T09:54:40.735Z,15.9
2023-03-23T09:55:56.971Z,16
2023-03-23T09:57:12.220Z,16.1
2023-03-23T09:58:28.458Z,16
2023-03-23T09:59:44.707Z,16
2023-03-23T10:01:00.950Z,16
2023-03-23T10:02:17.181Z,16
2023-03-23T10:03:33.427Z,16
2023-03-23T10:04:49.656Z,16.1
2023-03-23T10:06:05.900Z,16.1
2023-03-23T10:07:22.139Z,16.1
2023-03-23T10:08:38.384Z,16.1
2023-03-23T10:09:54.619Z,16.1
2023-03-23T10:11:10.872Z,16
2023-03-23T10:12:27.112Z,16.1
2023-03-23T10:13:42.364Z,16
2023-03-23T10:14:58.593Z,16
2023-03-23T10:16:14.830Z,16
2023-03-23T10:17:31.083Z,15.9
2023-03-23T10:18:47.311Z,15.9
2023-03-23T10:20:03.556Z,15.9
2023-03-23T10:21:19.801Z,15.9
2023-03-23T10:22:36.047Z,15.9
2023-03-23T10:23:52.275Z,15.9
2023-03-23T10:25:08.523Z,15.9
2023-03-23T10:26:24.760Z,15.9
2023-03-23T10:27:40.990Z,15.9
2023-03-23T10:28:57.247Z,15.9
2023-03-23T10:30:13.486Z,15.9
2023-03-23T10:31:28.731Z,15.9
2023-03-23T10:32:44.976Z,15.9
2023-03-23T10:34:01.215Z,15.9
2023-03-23T10:35:17.444Z,15.9
2023-03-23T10:36:33.696Z,15.9
2023-03-23T10:37:49.937Z,16
2023-03-23T10:39:06.169Z,16.1
2023-03-23T10:40:22.414Z,16.1
2023-03-23T10:41:38.643Z,16.2
2023-03-23T10:42:54.888Z,16.2
2023-03-23T10:44:11.125Z,16.3
2023-03-23T10:45:27.366Z,16.3
2023-03-23T10:46:43.611Z,16.4
2023-03-23T10:47:58.868Z,16.4
2023-03-23T10:49:15.117Z,16.4
2023-03-23T10:50:31.340Z,16.4
2023-03-23T10:51:47.585Z,16.4
2023-03-23T10:53:03.828Z,16.4
2023-03-23T10:54:20.069Z,16.4
2023-03-23T10:55:36.314Z,16.5
2023-03-23T10:58:08.792Z,16.4
2023-03-23T10:59:25.021Z,16.4
2023-03-23T11:00:41.274Z,16.4
2023-03-23T11:01:57.499Z,16.5
2023-03-23T11:03:13.750Z,16.5
2023-03-23T11:04:28.997Z,16.5
2023-03-23T11:05:45.235Z,16.5
2023-03-23T11:07:01.474Z,16.5
2023-03-23T11:08:17.730Z,16.4
2023-03-23T11:09:33.955Z,16.5
2023-03-23T11:10:50.194Z,16.4
2023-03-23T11:12:06.443Z,16.4
2023-03-23T11:13:22.674Z,16.4
2023-03-23T11:14:38.925Z,16.4
2023-03-23T11:15:55.149Z,16.5
2023-03-23T11:17:11.403Z,16.4
2023-03-23T11:18:27.641Z,16.5
2023-03-23T11:19:43.888Z,16.5
2023-03-23T11:20:59.136Z,16.6
2023-03-23T11:22:15.376Z,16.7
2023-03-23T11:23:31.617Z,16.7
2023-03-23T11:24:47.857Z,16.8
2023-03-23T11:26:04.094Z,16.8
2023-03-23T11:27:20.344Z,16.9
2023-03-23T11:28:36.576Z,17
2023-03-23T11:29:52.804Z,17
2023-03-23T11:31:09.045Z,17
2023-03-23T11:32:25.285Z,17
2023-03-23T11:33:41.538Z,17.1
2023-03-23T11:34:57.765Z,17.1
2023-03-23T11:36:14.014Z,17
2023-03-23T11:37:29.279Z,17
2023-03-23T11:38:44.527Z,16.9
2023-03-23T11:40:00.760Z,16.9
2023-03-23T11:41:17.018Z,16.8
2023-03-23T11:42:33.240Z,16.7
2023-03-23T11:43:49.492Z,16.7
2023-03-23T11:45:05.724Z,16.6
2023-03-23T11:46:21.972Z,16.5
2023-03-23T11:47:38.207Z,16.5
2023-03-23T11:48:54.452Z,16.5
2023-03-23T11:51:26.929Z,16.4
2023-03-23T11:52:43.162Z,16.4
2023-03-23T11:53:59.416Z,16.5
2023-03-23T11:55:14.661Z,16.5
2023-03-23T11:56:30.896Z,16.5
2023-03-23T11:57:47.147Z,16.5
2023-03-23T11:59:03.393Z,16.6
2023-03-23T12:00:19.613Z,16.5
2023-03-23T12:01:35.862Z,16.6
2023-03-23T12:02:52.112Z,16.6
2023-03-23T12:04:08.342Z,16.7
2023-03-23T12:05:24.582Z,16.7
2023-03-23T12:06:40.813Z,16.8
2023-03-23T12:07:57.068Z,16.8
2023-03-23T12:09:13.297Z,16.8
2023-03-23T12:10:29.534Z,16.7
2023-03-23T12:11:44.801Z,16.7
2023-03-23T12:13:01.048Z,16.7
2023-03-23T12:14:17.280Z,16.8
2023-03-23T12:15:33.513Z,16.8
2023-03-23T12:16:49.758Z,16.8
2023-03-23T12:18:05.995Z,16.9
2023-03-23T12:19:22.231Z,16.9
2023-03-23T12:20:38.472Z,16.9
2023-03-23T12:21:54.709Z,16.9
2023-03-23T12:23:10.949Z,17
2023-03-23T12:24:27.187Z,17
2023-03-23T12:25:43.445Z,17.1
2023-03-23T12:26:59.676Z,17.1
2023-03-23T12:28:14.923Z,17
2023-03-23T12:29:31.174Z,17.1
2023-03-23T12:30:47.402Z,17.1
2023-03-23T12:32:03.651Z,17.1
2023-03-23T12:33:19.890Z,17.2
2023-03-23T12:34:36.125Z,17.2
2023-03-23T12:35:52.364Z,17.3
2023-03-23T12:37:08.605Z,17.3
2023-03-23T12:38:24.845Z,17.3
2023-03-23T12:39:41.081Z,17.4
2023-03-23T12:40:57.328Z,17.4
2023-03-23T12:42:13.569Z,17.4
2023-03-23T12:43:29.802Z,17.6
2023-03-23T12:44:45.063Z,17.6
2023-03-23T12:46:01.310Z,17.7
2023-03-23T12:47:17.540Z,17.8
2023-03-23T12:48:33.794Z,17.9
2023-03-23T12:49:50.029Z,18
2023-03-23T12:51:06.274Z,18.1
2023-03-23T12:52:22.504Z,18.2
2023-03-23T12:53:38.736Z,18.2
2023-03-23T12:54:54.991Z,18.1
2023-03-23T12:56:11.215Z,18.2
2023-03-23T12:57:27.463Z,18.2
2023-03-23T12:58:43.697Z,18.2
2023-03-23T12:59:59.954Z,18.3
2023-03-23T13:01:15.209Z,18.2
2023-03-23T13:02:31.449Z,18.3
2023-03-23T13:03:47.689Z,18.3
2023-03-23T13:05:03.912Z,18.3
2023-03-23T13:06:20.159Z,18.4
2023-03-23T13:07:36.408Z,18.4
2023-03-23T13:08:52.636Z,18.3
2023-03-23T13:10:08.886Z,18.2
2023-03-23T13:11:25.128Z,18.2
2023-03-23T13:12:41.354Z,18.2
2023-03-23T13:13:57.593Z,18.1
2023-03-23T13:15:13.847Z,18
2023-03-23T13:16:30.081Z,17.9
2023-03-23T13:17:45.340Z,17.8
2023-03-23T13:19:01.574Z,17.6
2023-03-23T13:20:17.821Z,17.6
2023-03-23T13:21:34.059Z,17.4
2023-03-23T13:22:50.296Z,17.4
2023-03-23T13:24:06.530Z,17.4
2023-03-23T13:25:22.770Z,17.3
2023-03-23T13:26:39.007Z,17.3
2023-03-23T13:27:55.256Z,17.2
2023-03-23T13:29:11.498Z,17.2
2023-03-23T13:30:27.722Z,17.1
2023-03-23T13:31:43.964Z,17
2023-03-23T13:33:00.222Z,17
2023-03-23T13:34:15.468Z,16.9
2023-03-23T13:35:31.711Z,16.9
2023-03-23T13:36:47.952Z,16.8
2023-03-23T13:38:04.188Z,16.8
2023-03-23T13:39:20.424Z,16.8
2023-03-23T13:41:52.902Z,16.8
2023-03-23T13:43:09.157Z,16.7
2023-03-23T13:44:25.387Z,16.7
2023-03-23T13:45:41.618Z,16.6
2023-03-23T13:46:57.859Z,16.6
2023-03-23T13:48:14.115Z,16.6
2023-03-23T13:49:30.358Z,16.5
2023-03-23T13:50:46.595Z,16.5
2023-03-23T13:52:01.836Z,16.5
2023-03-23T13:53:18.088Z,16.4
2023-03-23T13:54:34.332Z,16.4
2023-03-23T13:55:50.553Z,16.3
2023-03-23T13:57:06.805Z,16.3
2023-03-23T13:58:23.047Z,16.3
2023-03-23T13:59:39.284Z,16.2
2023-03-23T14:00:55.514Z,16.3
2023-03-23T14:02:11.763Z,16.2
2023-03-23T14:03:27.998Z,16.2
2023-03-23T14:04:44.233Z,16.2
2023-03-23T14:06:00.480Z,16.2
2023-03-23T14:07:16.714Z,16.2
2023-03-23T14:08:31.979Z,16.2
2023-03-23T14:09:48.227Z,16.3
2023-03-23T14:11:04.456Z,16.2
2023-03-23T14:12:20.698Z,16.2
2023-03-23T14:13:36.942Z,16.2
2023-03-23T14:14:53.183Z,16.2
2023-03-23T14:16:09.416Z,16.1
2023-03-23T14:17:25.646Z,16.1
2023-03-23T14:18:41.892Z,16.1
2023-03-23T14:19:58.136Z,16
2023-03-23T14:21:14.366Z,16.1
2023-03-23T14:22:30.625Z,16.1
2023-03-23T14:23:46.850Z,16.1
2023-03-23T14:25:02.121Z,16
2023-03-23T14:26:18.347Z,16
2023-03-23T14:27:34.587Z,16.1
2023-03-23T14:28:50.840Z,16
2023-03-23T14:30:07.064Z,16
2023-03-23T14:31:23.315Z,16
2023-03-23T14:32:39.549Z,16
2023-03-23T14:33:55.795Z,16
2023-03-23T14:35:12.038Z,16
2023-03-23T14:36:28.270Z,16
2023-03-23T14:37:44.516Z,16
2023-03-23T14:39:00.000Z,16
2023-03-23T14:40:16.996Z,16
2023-03-23T14:41:33.219Z,16
2023-03-23T14:42:48.489Z,16
2023-03-23T14:44:04.735Z,16
2023-03-23T14:45:20.970Z,16
2023-03-23T14:46:37.199Z,16.1
2023-03-23T14:47:53.454Z,16.1
2023-03-23T14:49:09.686Z,16.1
2023-03-23T14:50:25.927Z,16.1
2023-03-23T14:51:42.160Z,16.1
2023-03-23T14:54:14.653Z,16.1
2023-03-23T14:55:30.877Z,16.1
2023-03-23T14:58:03.365Z,16.1
2023-03-23T14:59:18.610Z,16.1
2023-03-23T15:00:34.860Z,16.1
2023-03-23T15:01:51.094Z,16
2023-03-23T15:03:07.341Z,16
2023-03-23T15:05:39.824Z,16.1
2023-03-23T15:06:56.052Z,16
2023-03-23T15:08:11.312Z,16
2023-03-23T15:09:26.582Z,16
2023-03-23T15:10:42.823Z,15.9
2023-03-23T15:11:59.067Z,15.9
2023-03-23T15:13:15.292Z,15.9
2023-03-23T15:14:31.543Z,15.9
2023-03-23T15:15:47.773Z,15.9
2023-03-23T15:17:04.011Z,15.9
2023-03-23T15:18:20.268Z,15.9
2023-03-23T15:19:36.501Z,15.9
2023-03-23T15:20:52.733Z,15.9
2023-03-23T15:22:08.009Z,15.8
2023-03-23T15:23:23.258Z,15.8
2023-03-23T15:24:39.498Z,15.7
2023-03-23T15:25:55.734Z,15.7
2023-03-23T15:27:11.984Z,15.6
2023-03-23T15:28:28.214Z,15.6
2023-03-23T15:29:44.444Z,15.6
2023-03-23T15:31:00.687Z,15.6
2023-03-23T15:32:16.941Z,15.6
2023-03-23T15:33:33.166Z,15.5
2023-03-23T15:34:49.418Z,15.5
2023-03-23T15:36:05.650Z,15.5
2023-03-23T15:37:21.885Z,15.5
2023-03-23T15:38:38.131Z,15.5
2023-03-23T15:39:54.502Z,15.5
2023-03-23T15:41:10.727Z,15.5
2023-03-23T15:42:26.977Z,15.5
2023-03-23T15:43:43.214Z,15.5
2023-03-23T15:44:59.443Z,15.4
2023-03-23T15:46:15.689Z,15.5
2023-03-23T15:47:31.942Z,15.4
2023-03-23T15:48:48.178Z,15.4
2023-03-23T15:50:04.413Z,15.4
2023-03-23T15:51:20.644Z,15.4
2023-03-23T15:52:36.897Z,15.4
2023-03-23T15:53:52.146Z,15.4
2023-03-23T15:55:08.393Z,15.4
2023-03-23T15:56:24.636Z,15.4
2023-03-23T15:58:57.103Z,15.4
2023-03-23T16:00:13.344Z,15.3
2023-03-23T16:01:29.593Z,15.3
2023-03-23T16:02:45.827Z,15.3
2023-03-23T16:04:02.081Z,15.3
2023-03-23T16:05:18.317Z,15.3
2023-03-23T16:06:34.558Z,15.3
2023-03-23T16:07:50.793Z,15.3
2023-03-23T16:09:07.028Z,15.3
2023-03-23T16:10:23.395Z,15.3
2023-03-23T16:11:39.631Z,15.3
2023-03-23T16:12:55.868Z,15.3
2023-03-23T16:15:28.349Z,15.3
2023-03-23T16:16:44.591Z,15.3
2023-03-23T16:18:00.825Z,15.3
2023-03-23T16:19:17.062Z,15.3
2023-03-23T16:20:33.322Z,15.3
2023-03-23T16:21:49.545Z,15.3
2023-03-23T16:23:05.798Z,15.3
2023-03-23T16:24:22.026Z,15.3
2023-03-23T16:25:38.265Z,15.2
2023-03-23T16:26:53.521Z,15.2
2023-03-23T16:28:09.759Z,15.2
2023-03-23T16:29:26.005Z,15.2
2023-03-23T16:30:42.239Z,15.1
2023-03-23T16:31:58.486Z,15.1
2023-03-23T16:33:14.737Z,15.1
2023-03-23T16:34:30.962Z,15.1
2023-03-23T16:35:47.204Z,15.1
2023-03-23T16:37:03.454Z,15
2023-03-23T16:38:19.692Z,15
2023-03-23T16:39:35.924Z,15
2023-03-23T16:40:52.174Z,14.9
2023-03-23T16:42:08.418Z,14.9
2023-03-23T16:43:23.668Z,14.9
2023-03-23T16:44:39.904Z,14.9
2023-03-23T16:45:56.153Z,14.9
2023-03-23T16:47:12.377Z,14.9
2023-03-23T16:48:28.627Z,14.8
2023-03-23T16:49:44.856Z,14.8
2023-03-23T16:51:01.098Z,14.7
2023-03-23T16:52:17.344Z,14.7
2023-03-23T16:53:33.584Z,14.7
2023-03-23T16:54:49.813Z,14.6
2023-03-23T16:56:06.069Z,14.6
2023-03-23T16:57:22.298Z,14.6
2023-03-23T16:58:38.532Z,14.6
2023-03-23T16:59:53.802Z,14.6
2023-03-23T17:01:10.045Z,14.5
2023-03-23T17:02:26.270Z,14.6
2023-03-23T17:03:42.526Z,14.5
2023-03-23T17:04:58.769Z,14.5
2023-03-23T17:06:15.001Z,14.5
2023-03-23T17:07:31.242Z,14.5
2023-03-23T17:08:47.482Z,14.5
2023-03-23T17:10:03.711Z,14.4
2023-03-23T17:11:19.951Z,14.4
2023-03-23T17:12:36.205Z,14.4
2023-03-23T17:13:52.437Z,14.4
2023-03-23T17:16:24.916Z,14.4
2023-03-23T17:17:40.170Z,14.3
2023-03-23T17:18:56.415Z,14.3
2023-03-23T17:20:12.649Z,14.3
2023-03-23T17:22:45.144Z,14.3
2023-03-23T17:24:01.382Z,14.3
2023-03-23T17:25:17.608Z,14.3
2023-03-23T17:26:33.851Z,14.3
2023-03-23T17:27:50.084Z,14.3
2023-03-23T17:29:06.328Z,14.2
2023-03-23T17:30:22.573Z,14.2
2023-03-23T17:31:38.808Z,14.2
2023-03-23T17:32:55.055Z,14.1
2023-03-23T17:34:10.316Z,14.1
2023-03-23T17:35:26.552Z,14.1
2023-03-23T17:36:42.796Z,14
2023-03-23T17:37:59.040Z,14
2023-03-23T17:39:15.270Z,14
2023-03-23T17:40:31.512Z,13.9